»·PEaware :: UAL82 KLAS-KSAN

UAL82 :: KLAS-KSAN

FLIGHT INFORMATION

Flight Status: Arrived
Operator:
United Airlines
More flights by this operator :: More flights under this callsign
Pilot: Justin S. (9599)
Aircraft: BOEING 737-200
(B732)
More flights by this aircraft type
Origin: KLAS McCarran Intl
United States
Destination: KSAN San Diego Intl-Lindbergh
United States
More flights between these airports :: More routes between these airports
Route: +MCCRN5 TNP BARET5
File this flight plan on PilotEdge
Remarks:
Altitude:
(Current/Filed)
30,000ft
Speed:
(Current/Filed)
450kts
Departed: 12-Jan-18 11:09 PM
Arrived: 13-Jan-18 12:05 AM
Distance/Time
Traveled:
225nm/0:56
Distance/Time
To Go:
Arrived

Flight Plot

Page will automatically refresh every two minutes.

Flight plan parsing failed; only flown route is shown


Map Options




Map Legend


Flown Route
Filed Route
Departure Airport
Arrival Airport
Navaid (VOR, NDB)
Fix

Horizontal Profiles

Position Reports

Time Latitude Longitude Heading Altitude Ground
Speed
12-Jan-18 22:34 36.082019 -115.140166 47 2120ft 0kts
12-Jan-18 22:35 36.082019 -115.140166 47 2120ft 0kts
12-Jan-18 22:36 36.082019 -115.140166 47 2120ft 0kts
12-Jan-18 22:37 36.082019 -115.140166 47 2120ft 0kts
12-Jan-18 22:38 36.082019 -115.140166 47 2120ft 0kts
12-Jan-18 22:39 36.082019 -115.140166 47 2120ft 0kts
12-Jan-18 22:40 36.082018 -115.140167 47 2120ft 0kts
12-Jan-18 22:41 36.082018 -115.140167 47 2120ft 0kts
12-Jan-18 22:42 36.082018 -115.140167 47 2120ft 0kts
12-Jan-18 22:43 36.081746 -115.140777 88 2120ft 2kts
12-Jan-18 22:44 36.081946 -115.141340 136 2120ft 1kts
12-Jan-18 22:45 36.081949 -115.141344 136 2120ft 0kts
12-Jan-18 22:46 36.081949 -115.141344 136 2120ft 0kts
12-Jan-18 22:47 36.081949 -115.141344 136 2120ft 0kts
12-Jan-18 22:48 36.081949 -115.141344 136 2120ft 0kts
12-Jan-18 22:49 36.081949 -115.141344 136 2120ft 0kts
12-Jan-18 22:50 36.081949 -115.141344 136 2120ft 0kts
12-Jan-18 22:51 36.081949 -115.141344 136 2120ft 0kts
12-Jan-18 22:52 36.081949 -115.141344 136 2120ft 0kts
12-Jan-18 22:53 36.081946 -115.141340 136 2120ft 0kts
12-Jan-18 22:54 36.080375 -115.141603 180 2120ft 6kts
12-Jan-18 22:55 36.079303 -115.141626 180 2120ft 0kts
12-Jan-18 22:56 36.079303 -115.141626 180 2120ft 0kts
12-Jan-18 22:57 36.079303 -115.141626 180 2120ft 0kts
12-Jan-18 22:58 36.079303 -115.141626 180 2120ft 0kts
12-Jan-18 22:59 36.079303 -115.141626 180 2120ft 0kts
12-Jan-18 23:00 36.079303 -115.141626 180 2120ft 0kts
12-Jan-18 23:01 36.079303 -115.141626 180 2120ft 0kts
12-Jan-18 23:02 36.079303 -115.141626 180 2120ft 0kts
12-Jan-18 23:03 36.079303 -115.141626 180 2120ft 0kts
12-Jan-18 23:04 36.078271 -115.139829 90 2120ft 13kts
12-Jan-18 23:05 36.078283 -115.134096 91 2120ft 19kts
12-Jan-18 23:06 36.078302 -115.126526 92 2120ft 24kts
12-Jan-18 23:07 36.078275 -115.123080 92 2120ft 4kts
12-Jan-18 23:08 36.078048 -115.122239 141 2120ft 0kts
12-Jan-18 23:09 36.077939 -115.122134 142 2120ft 0kts
12-Jan-18 23:10 36.077647 -115.121796 130 2120ft 5kts
12-Jan-18 23:11 36.077443 -115.121506 141 2120ft 0kts
12-Jan-18 23:12 36.077443 -115.121506 141 2120ft 0kts
12-Jan-18 23:13 36.077443 -115.121506 141 2120ft 0kts
12-Jan-18 23:14 36.076653 -115.121243 186 2120ft 9kts
12-Jan-18 23:15 36.076395 -115.126168 270 2120ft 65kts
12-Jan-18 23:16 36.075501 -115.174844 272 3480ft 175kts
12-Jan-18 23:17 36.074496 -115.251692 249 5306ft 238kts
12-Jan-18 23:18 36.016887 -115.291658 202 7502ft 255kts
12-Jan-18 23:19 35.949060 -115.319639 192 9737ft 264kts
12-Jan-18 23:20 35.872279 -115.306804 172 10194ft 341kts
12-Jan-18 23:21 35.777155 -115.288886 172 12102ft 355kts
12-Jan-18 23:22 35.678562 -115.271333 172 14078ft 360kts
12-Jan-18 23:23 35.577765 -115.253696 172 16083ft 375kts
12-Jan-18 23:24 35.473812 -115.235463 173 18150ft 382kts
12-Jan-18 23:25 35.368568 -115.217184 173 20142ft 384kts
12-Jan-18 23:26 35.271154 -115.200345 173 21853ft 384kts
12-Jan-18 23:27 35.165063 -115.182037 173 23582ft 387kts
12-Jan-18 23:28 35.061098 -115.195114 211 24745ft 396kts
12-Jan-18 23:29 34.962004 -115.249013 205 25774ft 416kts
12-Jan-18 23:30 34.867962 -115.292627 203 26821ft 423kts
12-Jan-18 23:31 34.757844 -115.341391 203 28025ft 426kts
12-Jan-18 23:32 34.646513 -115.390323 203 29194ft 427kts
12-Jan-18 23:33 34.535555 -115.438913 204 30302ft 427kts
12-Jan-18 23:34 34.421423 -115.489145 203 30392ft 450kts
12-Jan-18 23:35 34.301156 -115.541717 203 30387ft 470kts
12-Jan-18 23:36 34.207821 -115.642673 238 30388ft 464kts
12-Jan-18 23:37 34.154893 -115.725342 235 30386ft 459kts
12-Jan-18 23:38 34.059754 -115.817232 192 30388ft 460kts
12-Jan-18 23:39 33.934119 -115.830441 192 30254ft 448kts
12-Jan-18 23:40 33.829593 -115.856129 196 30213ft 436kts
12-Jan-18 23:41 33.716270 -115.888722 197 30215ft 425kts
12-Jan-18 23:42 33.606918 -115.921112 197 29297ft 397kts
12-Jan-18 23:43 33.507570 -115.963303 230 27658ft 364kts
12-Jan-18 23:44 33.448093 -116.058971 239 25711ft 355kts
12-Jan-18 23:45 33.389546 -116.151914 232 24205ft 342kts
12-Jan-18 23:46 33.320941 -116.234924 226 21718ft 359kts
12-Jan-18 23:47 33.250516 -116.311515 225 20007ft 350kts
12-Jan-18 23:48 33.178450 -116.387904 224 18212ft 344kts
12-Jan-18 23:49 33.108816 -116.461066 223 16494ft 337kts
12-Jan-18 23:50 33.039204 -116.533750 222 14875ft 327kts
12-Jan-18 23:51 32.971753 -116.603768 221 13348ft 317kts
12-Jan-18 23:52 32.898551 -116.644879 194 11914ft 307kts
12-Jan-18 23:53 32.828935 -116.664715 193 10812ft 294kts
12-Jan-18 23:54 32.767178 -116.713206 250 9896ft 264kts
12-Jan-18 23:55 32.744101 -116.792744 251 8910ft 253kts
12-Jan-18 23:56 32.721720 -116.870483 251 8050ft 237kts
12-Jan-18 23:57 32.707861 -116.930017 281 7307ft 225kts
12-Jan-18 23:58 32.732334 -117.010391 292 6008ft 219kts
12-Jan-18 23:59 32.750411 -117.066173 292 5094ft 214kts
13-Jan-18 00:00 32.769631 -117.125164 292 5004ft 186kts
13-Jan-18 00:01 32.786218 -117.176448 292 4939ft 168kts
13-Jan-18 00:02 32.802493 -117.227577 292 4626ft 172kts
13-Jan-18 00:03 32.818930 -117.279366 292 3786ft 163kts
13-Jan-18 00:04 32.834874 -117.329618 292 2778ft 164kts
13-Jan-18 00:05 32.838761 -117.379599 212 1855ft 160kts
13-Jan-18 00:06 32.795811 -117.366965 135 1804ft 165kts
13-Jan-18 00:07 32.767505 -117.328641 107 1865ft 158kts
13-Jan-18 00:08 32.754909 -117.278094 104 1456ft 154kts
13-Jan-18 00:09 32.744288 -117.234000 104 677ft 137kts
13-Jan-18 00:10 32.734367 -117.192986 105 22ft 106kts
13-Jan-18 00:11 32.731421 -117.185097 280 21ft 7kts
13-Jan-18 00:12 32.732141 -117.188156 285 22ft 10kts
13-Jan-18 00:13 32.733015 -117.191749 286 22ft 16kts
13-Jan-18 00:14 32.734337 -117.197209 287 22ft 9kts
13-Jan-18 00:15 32.734347 -117.197243 287 22ft 0kts
13-Jan-18 00:16 32.733454 -117.193529 286 22ft 17kts
13-Jan-18 00:17 32.732951 -117.191489 285 22ft 16kts
13-Jan-18 00:18 32.731408 -117.184870 263 21ft 6kts
13-Jan-18 00:19 32.731571 -117.184501 225 21ft 3kts
13-Jan-18 00:20 32.734347 -117.197243 287 22ft 0kts

Navigation Log

Ident Type
Flight plan parsing failed, navigation log unavailable